createdAt,value
2023-10-08T00:00:08.482Z,3.15
2023-10-08T00:03:15.672Z,3.15
2023-10-08T00:06:02.924Z,3.12
2023-10-08T00:08:50.256Z,3.09
2023-10-08T00:11:38.217Z,2.66
2023-10-08T00:14:26.054Z,3.08
2023-10-08T00:17:13.169Z,3.07
2023-10-08T00:20:01.072Z,3.07
2023-10-08T00:22:47.974Z,3.05
2023-10-08T00:25:35.475Z,3.05
2023-10-08T00:28:22.370Z,2.99
2023-10-08T00:31:09.521Z,3.04
2023-10-08T00:33:56.585Z,3.03
2023-10-08T00:36:44.186Z,3.03
2023-10-08T00:39:34.991Z,2.95
2023-10-08T00:42:22.163Z,3.00
2023-10-08T00:45:09.096Z,2.99
2023-10-08T00:47:56.238Z,2.96
2023-10-08T00:50:43.624Z,2.97
2023-10-08T00:53:31.865Z,2.97
2023-10-08T00:56:18.979Z,2.95
2023-10-08T00:59:09.984Z,2.83
2023-10-08T01:01:57.164Z,2.94
2023-10-08T01:04:44.396Z,2.93
2023-10-08T01:07:35.910Z,2.93
2023-10-08T01:10:22.881Z,2.93
2023-10-08T01:13:15.819Z,2.92
2023-10-08T01:16:03.109Z,2.87
2023-10-08T01:18:50.041Z,2.89
2023-10-08T01:21:37.967Z,2.90
2023-10-08T01:24:25.029Z,2.91
2023-10-08T01:27:12.005Z,2.91
2023-10-08T01:30:00.332Z,2.90
2023-10-08T01:32:47.590Z,2.84
2023-10-08T01:35:43.181Z,2.88
2023-10-08T01:38:30.871Z,2.76
2023-10-08T01:41:17.881Z,2.83
2023-10-08T01:44:05.449Z,2.86
2023-10-08T01:46:52.453Z,2.86
2023-10-08T01:49:39.473Z,2.87
2023-10-08T01:52:30.311Z,2.85
2023-10-08T01:55:17.703Z,2.86
2023-10-08T01:58:05.752Z,2.81
2023-10-08T02:00:52.920Z,2.52
2023-10-08T02:03:40.132Z,2.86
2023-10-08T02:06:27.280Z,2.86
2023-10-08T02:09:14.617Z,2.84
2023-10-08T02:12:10.132Z,2.64
2023-10-08T02:14:57.103Z,2.85
2023-10-08T02:17:44.300Z,2.87
2023-10-08T02:20:31.720Z,2.87
2023-10-08T02:23:39.009Z,2.63
2023-10-08T02:26:26.151Z,2.87
2023-10-08T02:29:13.599Z,2.86
2023-10-08T02:32:01.855Z,2.86
2023-10-08T02:34:48.986Z,2.87
2023-10-08T02:37:36.282Z,2.87
2023-10-08T02:40:23.320Z,2.87
2023-10-08T02:43:10.261Z,2.88
2023-10-08T02:45:57.199Z,2.88
2023-10-08T02:48:44.177Z,2.90
2023-10-08T02:51:31.158Z,2.88
2023-10-08T02:54:18.227Z,2.90
2023-10-08T02:57:11.388Z,2.91
2023-10-08T03:00:01.324Z,2.91
2023-10-08T03:02:48.675Z,2.92
2023-10-08T03:05:35.937Z,2.90
2023-10-08T03:08:24.833Z,2.92
2023-10-08T03:11:19.467Z,2.89
2023-10-08T03:14:10.258Z,2.93
2023-10-08T03:16:57.267Z,2.93
2023-10-08T03:19:44.148Z,2.94
2023-10-08T03:22:32.325Z,2.68
2023-10-08T03:25:19.161Z,2.94
2023-10-08T03:28:06.124Z,2.94
2023-10-08T03:30:53.124Z,2.94
2023-10-08T03:33:44.279Z,2.94
2023-10-08T03:36:43.352Z,2.93
2023-10-08T03:39:33.135Z,2.95
2023-10-08T03:42:20.020Z,2.95
2023-10-08T03:45:07.021Z,2.95
2023-10-08T03:47:54.008Z,2.95
2023-10-08T03:50:41.270Z,2.96
2023-10-08T03:53:34.149Z,2.96
2023-10-08T03:56:21.108Z,2.97
2023-10-08T03:59:08.033Z,2.97
2023-10-08T04:01:54.984Z,2.96
2023-10-08T04:04:42.955Z,2.94
2023-10-08T04:07:28.250Z,2.95
2023-10-08T04:10:11.751Z,2.96
2023-10-08T04:12:59.051Z,2.92
2023-10-08T04:15:46.088Z,2.92
2023-10-08T04:18:33.343Z,2.96
2023-10-08T04:21:20.422Z,2.98
2023-10-08T04:24:08.089Z,2.97
2023-10-08T04:26:55.698Z,2.76
2023-10-08T04:29:42.810Z,2.99
2023-10-08T04:32:29.759Z,2.99
2023-10-08T04:35:16.854Z,2.97
2023-10-08T04:38:03.707Z,3.00
2023-10-08T04:40:50.751Z,3.00
2023-10-08T04:43:51.642Z,2.68
2023-10-08T04:46:38.757Z,2.97
2023-10-08T04:49:28.402Z,3.01
2023-10-08T04:52:26.853Z,3.01
2023-10-08T04:55:13.925Z,3.02
2023-10-08T04:58:01.275Z,3.02
2023-10-08T05:00:48.250Z,3.02
2023-10-08T05:03:35.254Z,3.00
2023-10-08T05:06:08.161Z,3.04
2023-10-08T05:09:10.844Z,2.95
2023-10-08T05:12:07.886Z,2.85
2023-10-08T05:14:35.442Z,3.05
2023-10-08T05:17:32.339Z,3.04
2023-10-08T05:19:59.440Z,3.04
2023-10-08T05:22:29.410Z,3.03
2023-10-08T05:25:16.944Z,3.04
2023-10-08T05:27:51.072Z,3.02
2023-10-08T05:30:38.065Z,3.04
2023-10-08T05:33:18.688Z,3.04
2023-10-08T05:35:47.642Z,3.03
2023-10-08T05:38:32.154Z,3.04
2023-10-08T05:41:00.511Z,3.04
2023-10-08T05:43:40.389Z,3.03
2023-10-08T05:46:24.965Z,3.05
2023-10-08T05:49:04.813Z,3.05
2023-10-08T05:51:50.863Z,3.06
2023-10-08T05:54:28.783Z,3.06
2023-10-08T05:57:07.757Z,3.06
2023-10-08T05:59:53.998Z,3.06
2023-10-08T06:02:34.708Z,3.04
2023-10-08T06:05:13.820Z,2.84
2023-10-08T06:07:56.777Z,3.08
2023-10-08T06:10:32.750Z,3.08
2023-10-08T06:13:27.741Z,3.09
2023-10-08T06:15:57.643Z,3.10
2023-10-08T06:18:50.111Z,3.10
2023-10-08T06:21:37.033Z,3.02
2023-10-08T06:24:26.842Z,3.14
2023-10-08T06:27:14.214Z,3.13
2023-10-08T06:30:01.156Z,3.17
2023-10-08T06:32:48.160Z,3.19
2023-10-08T06:35:35.433Z,3.21
2023-10-08T06:38:23.059Z,3.23
2023-10-08T06:41:10.590Z,3.26
2023-10-08T06:43:58.939Z,3.26
2023-10-08T06:46:46.062Z,3.28
2023-10-08T06:49:33.058Z,3.31
2023-10-08T06:52:20.034Z,3.38
2023-10-08T06:55:07.006Z,3.39
2023-10-08T06:57:54.004Z,3.41
2023-10-08T07:00:34.528Z,3.45
2023-10-08T07:03:02.560Z,3.49
2023-10-08T07:05:30.416Z,3.52
2023-10-08T07:07:57.524Z,3.56
2023-10-08T07:10:24.539Z,3.58
2023-10-08T07:12:53.968Z,3.60
2023-10-08T07:15:25.111Z,3.65
2023-10-08T07:17:52.760Z,3.68
2023-10-08T07:20:23.349Z,3.71
2023-10-08T07:22:55.363Z,3.74
2023-10-08T07:25:22.844Z,3.56
2023-10-08T07:27:50.022Z,3.62
2023-10-08T07:30:28.089Z,3.84
2023-10-08T07:32:59.494Z,3.65
2023-10-08T07:35:27.138Z,3.92
2023-10-08T07:37:56.195Z,3.89
2023-10-08T07:40:28.928Z,3.98
2023-10-08T07:42:56.125Z,4.00
2023-10-08T07:45:23.108Z,4.04
2023-10-08T07:47:50.204Z,4.07
2023-10-08T07:50:17.497Z,4.10
2023-10-08T07:52:46.344Z,4.14
2023-10-08T07:55:19.007Z,4.17
2023-10-08T07:57:46.641Z,4.21
2023-10-08T08:00:24.340Z,4.22
2023-10-08T08:02:53.901Z,4.22
2023-10-08T08:05:21.897Z,4.26
2023-10-08T08:07:51.241Z,4.34
2023-10-08T08:10:19.844Z,4.37
2023-10-08T08:12:47.218Z,4.41
2023-10-08T08:15:17.263Z,4.46
2023-10-08T08:17:45.552Z,4.49
2023-10-08T08:20:19.165Z,4.53
2023-10-08T08:22:56.146Z,4.58
2023-10-08T08:25:35.777Z,4.61
2023-10-08T08:28:07.472Z,4.66
2023-10-08T08:30:37.713Z,4.70
2023-10-08T08:33:12.142Z,4.61
2023-10-08T08:35:39.949Z,4.80
2023-10-08T08:38:10.028Z,4.84
2023-10-08T08:40:37.442Z,4.61
2023-10-08T08:43:06.651Z,4.94
2023-10-08T08:45:36.246Z,4.99
2023-10-08T08:48:03.661Z,5.03
2023-10-08T08:50:31.608Z,5.10
2023-10-08T08:52:59.796Z,5.14
2023-10-08T08:55:28.917Z,5.20
2023-10-08T08:57:56.807Z,5.26
2023-10-08T09:00:29.544Z,5.31
2023-10-08T09:02:57.094Z,5.25
2023-10-08T09:05:28.295Z,5.45
2023-10-08T09:08:07.852Z,5.52
2023-10-08T09:10:38.732Z,5.59
2023-10-08T09:13:08.847Z,5.48
2023-10-08T09:15:36.070Z,5.78
2023-10-08T09:18:06.685Z,5.85
2023-10-08T09:20:44.873Z,5.95
2023-10-08T09:23:13.626Z,5.85
2023-10-08T09:25:42.116Z,6.12
2023-10-08T09:28:09.572Z,6.19
2023-10-08T09:30:39.340Z,6.33
2023-10-08T09:33:11.450Z,6.41
2023-10-08T09:35:38.540Z,6.58
2023-10-08T09:38:10.423Z,6.73
2023-10-08T09:40:47.823Z,6.80
2023-10-08T09:43:17.656Z,6.85
2023-10-08T09:45:51.023Z,7.25
2023-10-08T09:48:21.620Z,7.42
2023-10-08T09:50:49.351Z,7.61
2023-10-08T09:53:21.159Z,7.78
2023-10-08T09:55:58.516Z,7.97
2023-10-08T09:58:28.516Z,8.17
2023-10-08T10:01:01.023Z,8.27
2023-10-08T10:03:28.701Z,8.60
2023-10-08T10:06:00.165Z,8.84
2023-10-08T10:08:29.734Z,9.10
2023-10-08T10:11:01.163Z,9.35
2023-10-08T10:13:42.671Z,9.63
2023-10-08T10:16:15.122Z,9.95
2023-10-08T10:18:48.333Z,10.27
2023-10-08T10:21:16.681Z,10.56
2023-10-08T10:23:45.232Z,10.82
2023-10-08T10:26:32.490Z,11.11
2023-10-08T10:29:11.481Z,11.40
2023-10-08T10:31:41.510Z,11.64
2023-10-08T10:34:09.840Z,11.86
2023-10-08T10:36:42.793Z,12.10
2023-10-08T10:39:17.760Z,12.26
2023-10-08T10:41:52.469Z,12.44
2023-10-08T10:44:19.861Z,12.63
2023-10-08T10:46:53.386Z,12.78
2023-10-08T10:49:25.391Z,13.04
2023-10-08T10:52:05.805Z,13.27
2023-10-08T10:54:37.607Z,13.49
2023-10-08T10:57:11.066Z,13.60
2023-10-08T10:59:39.333Z,13.85
2023-10-08T11:02:09.030Z,14.04
2023-10-08T11:04:49.101Z,14.23
2023-10-08T11:07:21.039Z,14.44
2023-10-08T11:09:48.978Z,14.63
2023-10-08T11:12:20.114Z,14.81
2023-10-08T11:14:53.303Z,14.99
2023-10-08T11:17:28.134Z,15.16
2023-10-08T11:19:55.304Z,15.26
2023-10-08T11:22:24.293Z,15.49
2023-10-08T11:24:55.430Z,15.65
2023-10-08T11:27:36.998Z,15.76
2023-10-08T11:30:12.398Z,15.77
2023-10-08T11:32:42.439Z,15.94
2023-10-08T11:35:17.620Z,16.05
2023-10-08T11:37:51.888Z,16.02
2023-10-08T11:40:30.904Z,16.20
2023-10-08T11:43:04.721Z,16.29
2023-10-08T11:45:40.003Z,16.25
2023-10-08T11:48:13.469Z,16.50
2023-10-08T11:50:42.128Z,16.58
2023-10-08T11:53:09.451Z,16.66
2023-10-08T11:55:38.480Z,16.71
2023-10-08T11:58:18.511Z,16.78
2023-10-08T12:00:47.167Z,16.87
2023-10-08T12:03:20.639Z,16.96
2023-10-08T12:05:59.827Z,17.01
2023-10-08T12:08:31.107Z,17.09
2023-10-08T12:11:04.904Z,17.20
2023-10-08T12:13:32.360Z,17.29
2023-10-08T12:16:07.727Z,17.38
2023-10-08T12:18:41.969Z,17.48
2023-10-08T12:21:15.846Z,17.55
2023-10-08T12:23:51.088Z,17.54
2023-10-08T12:26:20.466Z,17.57
2023-10-08T12:28:51.625Z,17.50
2023-10-08T12:31:23.334Z,17.61
2023-10-08T12:33:58.323Z,17.63
2023-10-08T12:36:27.451Z,17.64
2023-10-08T12:39:01.012Z,17.69
2023-10-08T12:41:28.180Z,17.68
2023-10-08T12:43:55.714Z,17.62
2023-10-08T12:46:27.042Z,17.57
2023-10-08T12:48:55.982Z,17.53
2023-10-08T12:51:25.426Z,17.49
2023-10-08T12:54:07.690Z,17.46
2023-10-08T12:56:50.138Z,17.42
2023-10-08T12:59:25.545Z,17.36
2023-10-08T13:01:55.997Z,17.11
2023-10-08T13:04:30.466Z,17.24
2023-10-08T13:07:02.845Z,17.18
2023-10-08T13:09:32.728Z,17.13
2023-10-08T13:12:01.026Z,17.05
2023-10-08T13:14:28.168Z,16.94
2023-10-08T13:16:55.423Z,16.83
2023-10-08T13:19:25.106Z,16.73
2023-10-08T13:21:55.536Z,16.53
2023-10-08T13:24:25.314Z,16.39
2023-10-08T13:26:52.961Z,16.16
2023-10-08T13:29:20.401Z,15.93
2023-10-08T13:31:48.161Z,15.67
2023-10-08T13:34:17.598Z,15.46
2023-10-08T13:36:48.364Z,15.23
2023-10-08T13:39:22.666Z,14.99
2023-10-08T13:41:49.843Z,14.76
2023-10-08T13:44:17.107Z,14.53
2023-10-08T13:46:50.522Z,14.30
2023-10-08T13:49:18.347Z,14.08
2023-10-08T13:51:57.170Z,13.86
2023-10-08T13:54:30.163Z,13.65
2023-10-08T13:56:59.798Z,13.48
2023-10-08T13:59:27.671Z,13.30
2023-10-08T14:01:56.205Z,13.14
2023-10-08T14:04:32.099Z,12.92
2023-10-08T14:06:59.900Z,12.78
2023-10-08T14:09:33.622Z,12.66
2023-10-08T14:12:01.912Z,12.49
2023-10-08T14:14:34.742Z,12.38
2023-10-08T14:17:09.075Z,12.24
2023-10-08T14:19:53.694Z,12.10
2023-10-08T14:22:23.861Z,11.97
2023-10-08T14:25:00.023Z,11.85
2023-10-08T14:27:34.676Z,11.72
2023-10-08T14:30:02.635Z,11.62
2023-10-08T14:32:33.555Z,11.52
2023-10-08T14:35:19.046Z,11.43
2023-10-08T14:38:04.681Z,11.33
2023-10-08T14:40:50.528Z,11.21
2023-10-08T14:43:21.549Z,11.07
2023-10-08T14:45:48.876Z,11.01
2023-10-08T14:48:16.272Z,10.87
2023-10-08T14:50:44.025Z,10.84
2023-10-08T14:53:11.178Z,10.76
2023-10-08T14:55:38.801Z,10.66
2023-10-08T14:58:09.683Z,10.63
2023-10-08T15:00:38.958Z,10.56
2023-10-08T15:03:06.684Z,10.38
2023-10-08T15:05:34.022Z,10.40
2023-10-08T15:08:01.386Z,10.15
2023-10-08T15:10:28.420Z,10.12
2023-10-08T15:12:55.409Z,10.21
2023-10-08T15:15:26.306Z,10.16
2023-10-08T15:17:53.972Z,10.11
2023-10-08T15:20:21.523Z,9.65
2023-10-08T15:22:50.642Z,9.84
2023-10-08T15:25:19.377Z,9.91
2023-10-08T15:27:48.774Z,9.84
2023-10-08T15:30:20.672Z,9.72
2023-10-08T15:32:49.114Z,9.57
2023-10-08T15:35:25.343Z,9.64
2023-10-08T15:37:53.473Z,9.57
2023-10-08T15:40:21.488Z,9.50
2023-10-08T15:42:52.683Z,9.44
2023-10-08T15:45:25.256Z,9.36
2023-10-08T15:47:53.884Z,9.29
2023-10-08T15:50:22.567Z,9.21
2023-10-08T15:52:50.974Z,9.15
2023-10-08T15:55:19.492Z,9.03
2023-10-08T15:57:46.404Z,9.00
2023-10-08T16:00:14.893Z,8.92
2023-10-08T16:02:44.396Z,8.78
2023-10-08T16:05:11.405Z,8.77
2023-10-08T16:07:38.536Z,8.70
2023-10-08T16:10:06.177Z,8.62
2023-10-08T16:12:33.341Z,8.50
2023-10-08T16:15:00.415Z,8.47
2023-10-08T16:17:32.464Z,8.11
2023-10-08T16:19:59.900Z,8.33
2023-10-08T16:22:27.132Z,8.26
2023-10-08T16:24:54.222Z,8.19
2023-10-08T16:27:21.268Z,8.12
2023-10-08T16:29:48.695Z,8.06
2023-10-08T16:32:16.048Z,8.00
2023-10-08T16:34:44.058Z,7.92
2023-10-08T16:37:15.961Z,7.87
2023-10-08T16:39:43.124Z,7.80
2023-10-08T16:42:10.092Z,7.73
2023-10-08T16:44:37.098Z,7.68
2023-10-08T16:47:04.587Z,7.63
2023-10-08T16:49:31.593Z,7.56
2023-10-08T16:51:59.980Z,7.51
2023-10-08T16:54:27.308Z,7.45
2023-10-08T16:56:54.370Z,7.40
2023-10-08T16:59:21.325Z,7.26
2023-10-08T17:01:48.422Z,7.29
2023-10-08T17:04:15.496Z,7.24
2023-10-08T17:06:42.563Z,7.18
2023-10-08T17:09:15.558Z,7.16
2023-10-08T17:11:47.975Z,7.11
2023-10-08T17:14:15.562Z,7.04
2023-10-08T17:16:45.694Z,6.99
2023-10-08T17:19:13.075Z,6.92
2023-10-08T17:21:40.748Z,6.87
2023-10-08T17:24:10.421Z,6.82
2023-10-08T17:26:39.017Z,6.82
2023-10-08T17:29:09.809Z,6.78
2023-10-08T17:31:38.736Z,6.71
2023-10-08T17:34:06.989Z,6.69
2023-10-08T17:36:37.086Z,6.65
2023-10-08T17:39:19.282Z,6.60
2023-10-08T17:41:46.904Z,6.58
2023-10-08T17:44:15.227Z,6.55
2023-10-08T17:46:44.342Z,6.52
2023-10-08T17:49:14.832Z,6.48
2023-10-08T17:51:42.085Z,6.45
2023-10-08T17:54:15.083Z,6.42
2023-10-08T17:56:42.725Z,6.39
2023-10-08T17:59:13.991Z,6.30
2023-10-08T18:01:43.370Z,6.32
2023-10-08T18:04:14.932Z,6.31
2023-10-08T18:06:45.619Z,6.28
2023-10-08T18:09:14.390Z,6.27
2023-10-08T18:11:44.585Z,6.25
2023-10-08T18:14:15.550Z,6.25
2023-10-08T18:16:43.675Z,6.23
2023-10-08T18:19:12.119Z,6.21
2023-10-08T18:21:40.435Z,6.21
2023-10-08T18:24:10.446Z,6.20
2023-10-08T18:26:42.874Z,6.18
2023-10-08T18:29:14.789Z,6.17
2023-10-08T18:31:42.990Z,6.08
2023-10-08T18:34:10.988Z,6.15
2023-10-08T18:36:38.512Z,6.14
2023-10-08T18:39:15.698Z,6.12
2023-10-08T18:41:44.432Z,6.03
2023-10-08T18:44:12.211Z,5.90
2023-10-08T18:46:39.385Z,6.10
2023-10-08T18:49:11.685Z,6.09
2023-10-08T18:51:44.062Z,5.85
2023-10-08T18:54:13.706Z,6.08
2023-10-08T18:56:41.913Z,6.08
2023-10-08T18:59:13.073Z,6.06
2023-10-08T19:01:44.777Z,5.86
2023-10-08T19:04:13.644Z,6.05
2023-10-08T19:06:41.167Z,6.04
2023-10-08T19:09:11.615Z,5.97
2023-10-08T19:11:39.473Z,6.05
2023-10-08T19:14:07.638Z,6.04
2023-10-08T19:16:34.652Z,6.05
2023-10-08T19:19:02.771Z,6.04
2023-10-08T19:21:30.412Z,6.05
2023-10-08T19:23:58.751Z,6.05
2023-10-08T19:26:29.249Z,6.04
2023-10-08T19:28:59.745Z,6.06
2023-10-08T19:31:27.828Z,6.06
2023-10-08T19:33:55.966Z,5.89
2023-10-08T19:36:24.317Z,6.09
2023-10-08T19:38:51.987Z,6.08
2023-10-08T19:41:22.838Z,6.09
2023-10-08T19:43:53.067Z,6.10
2023-10-08T19:46:26.618Z,6.10
2023-10-08T19:48:54.465Z,6.11
2023-10-08T19:51:23.501Z,6.11
2023-10-08T19:53:54.619Z,6.13
2023-10-08T19:56:22.613Z,6.07
2023-10-08T19:58:49.724Z,6.12
2023-10-08T20:01:18.052Z,6.00
2023-10-08T20:03:46.027Z,6.14
2023-10-08T20:06:14.473Z,6.14
2023-10-08T20:08:41.842Z,5.87
2023-10-08T20:11:09.007Z,6.15
2023-10-08T20:13:40.213Z,6.03
2023-10-08T20:16:08.123Z,6.14
2023-10-08T20:18:37.124Z,6.11
2023-10-08T20:21:06.465Z,6.14
2023-10-08T20:23:39.865Z,6.14
2023-10-08T20:26:15.357Z,6.13
2023-10-08T20:28:43.335Z,6.12
2023-10-08T20:31:15.358Z,6.11
2023-10-08T20:33:45.801Z,6.12
2023-10-08T20:36:18.772Z,6.06
2023-10-08T20:38:46.260Z,6.10
2023-10-08T20:41:23.012Z,6.09
2023-10-08T20:43:50.242Z,5.93
2023-10-08T20:46:18.067Z,6.06
2023-10-08T20:48:49.818Z,5.85
2023-10-08T20:51:19.706Z,6.04
2023-10-08T20:53:48.291Z,6.01
2023-10-08T20:56:17.197Z,6.00
2023-10-08T20:58:44.647Z,5.98
2023-10-08T21:01:12.314Z,5.90
2023-10-08T21:03:40.053Z,5.92
2023-10-08T21:06:07.740Z,5.88
2023-10-08T21:08:36.456Z,5.74
2023-10-08T21:11:04.624Z,5.89
2023-10-08T21:13:32.090Z,5.86
2023-10-08T21:16:02.012Z,5.85
2023-10-08T21:18:31.274Z,5.82
2023-10-08T21:20:58.807Z,5.81
2023-10-08T21:23:25.838Z,5.79
2023-10-08T21:25:53.145Z,5.54
2023-10-08T21:28:20.129Z,5.74
2023-10-08T21:30:47.279Z,5.71
2023-10-08T21:33:14.798Z,5.70
2023-10-08T21:35:42.680Z,5.68
2023-10-08T21:38:11.328Z,5.64
2023-10-08T21:40:39.444Z,5.62
2023-10-08T21:43:08.716Z,5.59
2023-10-08T21:45:36.493Z,5.51
2023-10-08T21:48:04.390Z,5.54
2023-10-08T21:50:32.271Z,5.51
2023-10-08T21:52:59.536Z,5.48
2023-10-08T21:55:26.842Z,5.45
2023-10-08T21:57:54.458Z,5.43
2023-10-08T22:00:25.230Z,5.39
2023-10-08T22:02:55.284Z,5.35
2023-10-08T22:05:23.563Z,5.32
2023-10-08T22:07:54.702Z,5.28
2023-10-08T22:10:22.243Z,5.26
2023-10-08T22:12:50.937Z,5.22
2023-10-08T22:15:18.213Z,5.16
2023-10-08T22:17:46.929Z,5.18
2023-10-08T22:20:33.938Z,5.13
2023-10-08T22:23:03.197Z,5.11
2023-10-08T22:25:34.292Z,5.00
2023-10-08T22:28:03.518Z,4.85
2023-10-08T22:30:30.964Z,5.01
2023-10-08T22:33:00.727Z,4.94
2023-10-08T22:35:29.566Z,4.95
2023-10-08T22:38:02.899Z,4.91
2023-10-08T22:41:05.446Z,4.84
2023-10-08T22:43:37.156Z,4.84
2023-10-08T22:46:07.691Z,4.81
2023-10-08T22:48:45.997Z,4.78
2023-10-08T22:51:28.117Z,4.75
2023-10-08T22:53:57.263Z,4.71
2023-10-08T22:56:25.439Z,4.68
2023-10-08T22:58:54.006Z,4.65
2023-10-08T23:01:23.375Z,4.62
2023-10-08T23:03:53.303Z,4.59
2023-10-08T23:06:23.186Z,4.55
2023-10-08T23:08:50.848Z,4.53
2023-10-08T23:11:17.899Z,4.51
2023-10-08T23:13:45.947Z,4.47
2023-10-08T23:16:16.507Z,4.43
2023-10-08T23:18:46.829Z,4.41
2023-10-08T23:21:17.218Z,4.34
2023-10-08T23:23:47.930Z,4.26
2023-10-08T23:26:17.554Z,4.12
2023-10-08T23:28:48.522Z,4.06
2023-10-08T23:31:16.175Z,4.24
2023-10-08T23:33:48.748Z,4.18
2023-10-08T23:36:18.240Z,4.17
2023-10-08T23:38:54.184Z,4.13
2023-10-08T23:41:33.699Z,4.10
2023-10-08T23:44:04.110Z,4.06
2023-10-08T23:46:33.033Z,4.03
2023-10-08T23:49:07.230Z,3.99
2023-10-08T23:51:39.460Z,3.95
2023-10-08T23:54:13.802Z,3.91
2023-10-08T23:56:46.471Z,3.88
2023-10-08T23:59:18.633Z,3.83
